^^
Your Local Weather - Clay, NY Station Historical Data
 
Daily Summary for October 16, 2018 Units:  English    Metric   Both
« Previous Day
Next Day »
Daily Weekly Monthly Yearly Custom
  Current: High: Low: Average:
Temperature: 40.9 °F 45.3 °F 40.9 °F 42.7 °F
Dew Point: 29.7 °F 31 °F 25.7 °F 29.2 °F
Humidity: 64% 65% 47% 59%
Wind Speed: 4mph 4mph 0mph 1.9mph
Wind Gust: 5mph 10mph - -
WindSW - - West
Pressure: 30.06 in 30.06 in 30.02 in -
Precipitation: 0 in      
Historical Graphs
 
 
Tabular Data for October 16, 2018
Time Temperature Dew Point Pressure Wind Wind Speed Wind Gust Humidity Rainfall Rate (Hourly) solar
00:04 45.3 °F 27.7 °F 30.02 in WNW 4 mph 9 mph 50% 0 in 0.00 W/m2
00:08 45 °F 27 °F 30.02 in WNW 4 mph 9 mph 49% 0 in 0.00 W/m2
00:14 44.8 °F 26.3 °F 30.02 in NW 3 mph 4 mph 48% 0 in 0.00 W/m2
00:18 44.7 °F 25.7 °F 30.02 in NW 4 mph 10 mph 47% 0 in 0.00 W/m2
00:24 44.6 °F 26.1 °F 30.02 in NW 4 mph 7 mph 48% 0 in 0.00 W/m2
00:28 44.6 °F 27.1 °F 30.02 in NNW 3 mph 7 mph 50% 0 in 0.00 W/m2
00:34 44.3 °F 27.8 °F 30.02 in WNW 2 mph 3 mph 52% 0 in 0.00 W/m2
00:38 44.1 °F 27.6 °F 30.02 in WNW 1 mph 5 mph 52% 0 in 0.00 W/m2
00:44 44 °F 27.5 °F 30.02 in NW 2 mph 3 mph 52% 0 in 0.00 W/m2
00:48 43.9 °F 27.4 °F 30.02 in NW 2 mph 3 mph 52% 0 in 0.00 W/m2
00:54 44.1 °F 28 °F 30.02 in NNW 2 mph 2 mph 53% 0 in 0.00 W/m2
00:58 44.2 °F 28.1 °F 30.03 in NW 2 mph 5 mph 53% 0 in 0.00 W/m2
01:04 44.2 °F 28.1 °F 30.03 in NW 2 mph 5 mph 53% 0 in 0.00 W/m2
01:08 44.1 °F 28.5 °F 30.03 in NW 1 mph 5 mph 54% 0 in 0.00 W/m2
01:14 44 °F 28 °F 30.03 in West 3 mph 4 mph 53% 0 in 0.00 W/m2
01:18 44 °F 28.4 °F 30.04 in WNW 3 mph 4 mph 54% 0 in 0.00 W/m2
01:24 44 °F 28 °F 30.04 in WNW 2 mph 3 mph 53% 0 in 0.00 W/m2
01:28 43.9 °F 28.3 °F 30.03 in WNW 2 mph 3 mph 54% 0 in 0.00 W/m2
01:34 43.6 °F 28.5 °F 30.04 in NW 1 mph 3 mph 55% 0 in 0.00 W/m2
01:38 43.4 °F 28.7 °F 30.04 in NW 1 mph 3 mph 56% 0 in 0.00 W/m2
01:44 43.2 °F 29.4 °F 30.04 in West 1 mph 2 mph 58% 0 in 0.00 W/m2
01:48 43.1 °F 29.3 °F 30.04 in NW 2 mph 2 mph 58% 0 in 0.00 W/m2
01:54 42.9 °F 29.5 °F 30.04 in WSW 2 mph 3 mph 59% 0 in 0.00 W/m2
01:58 42.9 °F 30 °F 30.04 in WSW 1 mph 6 mph 60% 0 in 0.00 W/m2
02:04 42.9 °F 29.5 °F 30.04 in West 1 mph 1 mph 59% 0 in 0.00 W/m2
02:08 43.1 °F 29.3 °F 30.04 in NW 1 mph 1 mph 58% 0 in 0.00 W/m2
02:14 43.2 °F 29.8 °F 30.05 in NW 1 mph 2 mph 59% 0 in 0.00 W/m2
02:18 42.9 °F 30 °F 30.05 in Calm   2 mph 60% 0 in 0.00 W/m2
02:24 42.6 °F 29.7 °F 30.05 in Calm     60% 0 in 0.00 W/m2
02:28 42.6 °F 30.1 °F 30.05 in Calm     61% 0 in 0.00 W/m2
02:34 42.4 °F 29.5 °F 30.05 in Calm   2 mph 60% 0 in 0.00 W/m2
02:38 42.3 °F 30.2 °F 30.05 in Calm   2 mph 62% 0 in 0.00 W/m2
02:44 42.1 °F 30 °F 30.05 in Calm   1 mph 62% 0 in 0.00 W/m2
02:48 42.1 °F 30.8 °F 30.04 in Calm   1 mph 64% 0 in 0.00 W/m2
02:54 41.9 °F 31 °F 30.04 in Calm     65% 0 in 0.00 W/m2
02:58 41.6 °F 30.3 °F 30.04 in Calm   1 mph 64% 0 in 0.00 W/m2
03:04 41.6 °F 30.3 °F 30.05 in Calm   2 mph 64% 0 in 0.00 W/m2
03:08 41.8 °F 30.5 °F 30.04 in WSW 1 mph 2 mph 64% 0 in 0.00 W/m2
03:14 42.1 °F 30 °F 30.04 in WSW 1 mph 2 mph 62% 0 in 0.00 W/m2
03:18 42.1 °F 30 °F 30.05 in WSW 2 mph 3 mph 62% 0 in 0.00 W/m2
03:24 42.1 °F 30 °F 30.04 in WSW 2 mph 4 mph 62% 0 in 0.00 W/m2
03:28 41.9 °F 29.8 °F 30.04 in SW 2 mph 4 mph 62% 0 in 0.00 W/m2
03:34 41.8 °F 30.1 °F 30.05 in WSW 2 mph 5 mph 63% 0 in 0.00 W/m2
03:38 41.8 °F 30.1 °F 30.05 in WSW 2 mph 6 mph 63% 0 in 0.00 W/m2
03:44 41.6 °F 30.3 °F 30.05 in WSW 2 mph 2 mph 64% 0 in 0.00 W/m2
03:48 41.6 °F 29.9 °F 30.05 in WSW 2 mph 2 mph 63% 0 in 0.00 W/m2
03:54 41.5 °F 30.2 °F 30.05 in WSW 2 mph 4 mph 64% 0 in 0.00 W/m2
03:58 41.5 °F 30.2 °F 30.05 in SW 3 mph 4 mph 64% 0 in 0.00 W/m2
04:04 41.4 °F 30.1 °F 30.05 in SW 2 mph 3 mph 64% 0 in 0.00 W/m2
04:08 41.3 °F 30 °F 30.05 in WSW 3 mph 4 mph 64% 0 in 0.00 W/m2
04:14 41.2 °F 30.3 °F 30.05 in SW 3 mph 6 mph 65% 0 in 0.00 W/m2
04:18 41.2 °F 29.9 °F 30.05 in SW 3 mph 6 mph 64% 0 in 0.00 W/m2
04:24 41.2 °F 29.9 °F 30.05 in WSW 3 mph 3 mph 64% 0 in 0.00 W/m2
04:28 41.1 °F 30.2 °F 30.05 in SSW 3 mph 3 mph 65% 0 in 0.00 W/m2
04:34 41.1 °F 29.8 °F 30.06 in WSW 3 mph 4 mph 64% 0 in 0.00 W/m2
04:38 41.1 °F 29.8 °F 30.06 in WSW 3 mph 4 mph 64% 0 in 0.00 W/m2
04:44 40.9 °F 29.7 °F 30.05 in SW 3 mph 8 mph 64% 0 in 0.00 W/m2
04:48 41 °F 29.7 °F 30.06 in SW 4 mph 8 mph 64% 0 in 0.00 W/m2
04:54 40.9 °F 29.7 °F 30.06 in SW 4 mph 5 mph 64% 0 in 0.00 W/m2
Country Meadow, Clay, NY, USA
Compliments of Weather Underground - 2 mb